createdAt,value
2019-05-02T00:02:24.043Z,28.10
2019-05-02T00:04:55.804Z,34.40
2019-05-02T00:07:23.804Z,26.93
2019-05-02T00:09:53.334Z,28.13
2019-05-02T00:12:23.539Z,29.73
2019-05-02T00:14:56.517Z,28.17
2019-05-02T00:17:27.418Z,32.87
2019-05-02T00:19:56.719Z,28.77
2019-05-02T00:22:25.878Z,25.03
2019-05-02T00:24:55.152Z,28.17
2019-05-02T00:27:24.310Z,27.00
2019-05-02T00:29:58.114Z,29.27
2019-05-02T00:32:24.630Z,26.67
2019-05-02T00:34:53.855Z,27.17
2019-05-02T00:37:24.561Z,26.53
2019-05-02T00:39:53.985Z,27.70
2019-05-02T00:42:24.120Z,31.13
2019-05-02T00:44:53.623Z,25.77
2019-05-02T00:47:27.209Z,22.67
2019-05-02T00:49:56.370Z,27.50
2019-05-02T00:52:25.534Z,29.80
2019-05-02T00:54:58.389Z,29.20
2019-05-02T00:57:25.602Z,28.07
2019-05-02T00:59:54.770Z,24.77
2019-05-02T01:02:35.791Z,32.67
2019-05-02T01:05:04.547Z,27.13
2019-05-02T01:07:34.930Z,27.47
2019-05-02T01:10:06.077Z,31.80
2019-05-02T01:12:35.250Z,32.67
2019-05-02T01:15:08.340Z,35.13
2019-05-02T01:17:35.952Z,30.37
2019-05-02T01:20:07.309Z,34.17
2019-05-02T01:22:36.466Z,30.20
2019-05-02T01:25:15.360Z,28.03
2019-05-02T01:27:46.445Z,25.70
2019-05-02T01:30:20.383Z,24.83
2019-05-02T01:33:01.428Z,26.53
2019-05-02T01:35:38.825Z,23.40
2019-05-02T01:38:26.390Z,31.93
2019-05-02T01:40:56.605Z,28.97
2019-05-02T01:43:28.609Z,26.83
2019-05-02T01:45:58.115Z,29.70
2019-05-02T01:48:27.618Z,27.13
2019-05-02T01:50:57.926Z,27.77
2019-05-02T01:53:29.437Z,36.33
2019-05-02T01:55:59.388Z,34.00
2019-05-02T01:58:29.057Z,35.87
2019-05-02T02:00:58.223Z,37.13
2019-05-02T02:03:27.444Z,37.20
2019-05-02T02:05:56.676Z,40.10
2019-05-02T02:08:27.353Z,41.07
2019-05-02T02:10:58.271Z,43.53
2019-05-02T02:13:31.241Z,47.43
2019-05-02T02:16:00.188Z,44.00
2019-05-02T02:18:31.371Z,48.87
2019-05-02T02:21:10.911Z,49.27
2019-05-02T02:24:00.454Z,47.70
2019-05-02T02:26:29.605Z,46.27
2019-05-02T02:29:02.959Z,50.90
2019-05-02T02:31:29.752Z,51.57
2019-05-02T02:33:58.920Z,51.57
2019-05-02T02:36:34.450Z,51.13
2019-05-02T02:38:59.297Z,53.40
2019-05-02T02:41:28.452Z,42.17
2019-05-02T02:44:02.943Z,49.30
2019-05-02T02:46:37.863Z,49.67
2019-05-02T02:49:06.543Z,44.70
2019-05-02T02:51:35.792Z,46.93
2019-05-02T02:54:05.975Z,50.50
2019-05-02T02:56:40.452Z,44.30
2019-05-02T02:59:06.988Z,49.63
2019-05-02T03:01:36.179Z,54.63
2019-05-02T03:04:09.552Z,48.57
2019-05-02T03:06:38.314Z,57.70
2019-05-02T03:09:07.977Z,51.77
2019-05-02T03:11:38.855Z,47.67
2019-05-02T03:14:12.331Z,54.73
2019-05-02T03:16:47.016Z,53.63
2019-05-02T03:19:14.764Z,49.03
2019-05-02T03:22:00.802Z,54.60
2019-05-02T03:24:27.084Z,55.53
2019-05-02T03:26:58.397Z,64.20
2019-05-02T03:29:39.888Z,62.23
2019-05-02T03:32:13.439Z,70.73
2019-05-02T03:34:44.957Z,66.13
2019-05-02T03:37:10.230Z,70.13
2019-05-02T03:39:32.676Z,69.70
2019-05-02T03:42:03.229Z,75.13
2019-05-02T03:44:33.799Z,71.87
2019-05-02T03:47:04.952Z,67.37
2019-05-02T03:49:41.145Z,66.33
2019-05-02T03:52:06.197Z,70.13
2019-05-02T03:54:49.039Z,59.20
2019-05-02T03:57:07.425Z,59.37
2019-05-02T03:59:39.283Z,55.60
2019-05-02T04:02:07.510Z,58.87
2019-05-02T04:04:38.372Z,54.13
2019-05-02T04:07:08.360Z,56.13
2019-05-02T04:09:40.124Z,58.30
2019-05-02T04:12:18.627Z,58.27
2019-05-02T04:14:40.607Z,51.90
2019-05-02T04:17:10.863Z,51.23
2019-05-02T04:19:40.759Z,53.27
2019-05-02T04:22:11.949Z,56.80
2019-05-02T04:24:47.686Z,50.13
2019-05-02T04:27:13.655Z,52.37
2019-05-02T04:29:42.982Z,56.53
2019-05-02T04:32:14.472Z,45.07
2019-05-02T04:34:49.072Z,50.50
2019-05-02T04:37:15.119Z,49.73
2019-05-02T04:39:44.354Z,44.57
2019-05-02T04:42:19.719Z,46.10
2019-05-02T04:45:08.778Z,43.80
2019-05-02T04:47:20.690Z,45.40
2019-05-02T04:49:51.532Z,44.83
2019-05-02T04:52:20.911Z,41.17
2019-05-02T04:54:48.818Z,40.77
2019-05-02T04:57:18.844Z,41.60
2019-05-02T04:59:50.630Z,38.60
2019-05-02T05:02:21.174Z,37.87
2019-05-02T05:04:50.395Z,34.90
2019-05-02T05:07:19.666Z,37.37
2019-05-02T05:09:57.134Z,36.93
2019-05-02T05:12:20.352Z,41.40
2019-05-02T05:14:49.562Z,39.83
2019-05-02T05:17:20.178Z,35.90
2019-05-02T05:19:49.589Z,44.50
2019-05-02T05:22:18.787Z,36.77
2019-05-02T05:25:01.318Z,46.40
2019-05-02T05:27:30.514Z,41.33
2019-05-02T05:30:08.454Z,44.23
2019-05-02T05:32:30.622Z,40.60
2019-05-02T05:35:03.320Z,44.57
2019-05-02T05:37:30.753Z,42.37
2019-05-02T05:39:59.930Z,36.37
2019-05-02T05:42:33.232Z,41.40
2019-05-02T05:45:03.663Z,36.53
2019-05-02T05:47:31.006Z,35.40
2019-05-02T05:50:01.208Z,38.67
2019-05-02T05:52:33.195Z,37.13
2019-05-02T05:55:04.747Z,38.50
2019-05-02T05:57:32.465Z,33.93
2019-05-02T06:00:03.813Z,35.40
2019-05-02T06:02:50.090Z,35.30
2019-05-02T06:05:07.952Z,32.30
2019-05-02T06:07:43.321Z,34.03
2019-05-02T06:10:08.452Z,31.13
2019-05-02T06:12:39.041Z,38.83
2019-05-02T06:15:08.347Z,40.23
2019-05-02T06:17:37.506Z,34.43
2019-05-02T06:20:07.845Z,35.60
2019-05-02T06:22:37.011Z,34.13
2019-05-02T06:25:09.270Z,32.80
2019-05-02T06:27:38.618Z,37.03
2019-05-02T06:30:08.709Z,31.60
2019-05-02T06:32:37.870Z,34.60
2019-05-02T06:35:08.173Z,34.00
2019-05-02T06:37:40.315Z,33.00
2019-05-02T06:40:09.455Z,28.87
2019-05-02T06:42:39.109Z,28.77
2019-05-02T06:45:09.412Z,31.70
2019-05-02T06:47:41.810Z,32.97
2019-05-02T06:50:10.483Z,30.27
2019-05-02T06:52:39.641Z,28.90
2019-05-02T06:55:09.843Z,32.77
2019-05-02T06:57:39.056Z,28.10
2019-05-02T07:00:08.864Z,27.23
2019-05-02T07:02:38.477Z,23.63
2019-05-02T07:05:08.746Z,19.63
2019-05-02T07:07:38.232Z,24.47
2019-05-02T07:10:08.934Z,24.57
2019-05-02T07:12:38.142Z,28.40
2019-05-02T07:15:10.906Z,22.13
2019-05-02T07:17:45.017Z,22.10
2019-05-02T07:20:15.227Z,19.07
2019-05-02T07:22:45.730Z,19.93
2019-05-02T07:25:17.986Z,23.63
2019-05-02T07:27:47.295Z,22.33
2019-05-02T07:30:17.668Z,19.60
2019-05-02T07:32:46.938Z,17.37
2019-05-02T07:35:19.178Z,20.53
2019-05-02T07:37:48.780Z,22.07
2019-05-02T07:40:18.924Z,21.33
2019-05-02T07:42:48.362Z,24.83
2019-05-02T07:45:18.077Z,26.47
2019-05-02T07:47:47.347Z,20.80
2019-05-02T07:50:17.045Z,23.90
2019-05-02T07:52:46.216Z,15.73
2019-05-02T07:55:15.485Z,21.83
2019-05-02T07:57:44.702Z,23.67
2019-05-02T08:00:15.675Z,18.13
2019-05-02T08:02:45.455Z,24.70
2019-05-02T08:05:21.002Z,21.17
2019-05-02T08:07:46.107Z,18.83
2019-05-02T08:10:22.282Z,18.97
2019-05-02T08:12:49.167Z,22.77
2019-05-02T08:15:18.562Z,18.93
2019-05-02T08:17:53.232Z,22.97
2019-05-02T08:20:19.583Z,20.13
2019-05-02T08:22:50.508Z,16.23
2019-05-02T08:25:20.216Z,15.63
2019-05-02T08:27:51.493Z,21.13
2019-05-02T08:30:25.825Z,18.57
2019-05-02T08:32:55.062Z,21.10
2019-05-02T08:35:24.254Z,19.03
2019-05-02T08:37:55.863Z,16.47
2019-05-02T08:40:24.463Z,19.40
2019-05-02T08:42:53.731Z,18.07
2019-05-02T08:45:22.991Z,21.97
2019-05-02T08:47:52.150Z,19.87
2019-05-02T08:50:21.381Z,16.13
2019-05-02T08:52:50.573Z,17.97
2019-05-02T08:55:19.806Z,18.47
2019-05-02T08:57:49.035Z,17.87
2019-05-02T09:00:19.176Z,18.23
2019-05-02T09:02:48.401Z,19.97
2019-05-02T09:05:17.638Z,31.10
2019-05-02T09:07:46.914Z,27.43
2019-05-02T09:10:16.417Z,21.53
2019-05-02T09:12:45.648Z,21.10
2019-05-02T09:15:15.799Z,20.13
2019-05-02T09:17:52.569Z,22.83
2019-05-02T09:20:20.831Z,25.60
2019-05-02T09:22:52.197Z,24.40
2019-05-02T09:25:19.023Z,25.97
2019-05-02T09:27:48.670Z,25.20
2019-05-02T09:30:22.769Z,24.57
2019-05-02T09:32:49.047Z,20.40
2019-05-02T09:35:18.202Z,19.27
2019-05-02T09:37:47.397Z,33.07
2019-05-02T09:40:17.016Z,19.00
2019-05-02T09:42:47.551Z,19.83
2019-05-02T09:45:18.839Z,21.63
2019-05-02T09:47:57.320Z,32.13
2019-05-02T09:50:25.105Z,23.87
2019-05-02T09:52:52.259Z,24.27
2019-05-02T09:55:22.647Z,29.57
2019-05-02T09:57:52.142Z,25.67
2019-05-02T10:00:32.250Z,25.70
2019-05-02T10:02:59.703Z,34.87
2019-05-02T10:05:28.870Z,26.07
2019-05-02T10:08:03.129Z,23.00
2019-05-02T10:10:32.215Z,26.03
2019-05-02T10:13:02.765Z,26.43
2019-05-02T10:15:32.792Z,31.30
2019-05-02T10:18:11.071Z,28.03
2019-05-02T10:20:36.306Z,24.00
2019-05-02T10:23:05.197Z,28.80
2019-05-02T10:25:38.670Z,26.80
2019-05-02T10:28:05.827Z,26.27
2019-05-02T10:30:36.160Z,20.97
2019-05-02T10:33:06.474Z,21.73
2019-05-02T10:35:40.615Z,24.00
2019-05-02T10:38:09.390Z,24.43
2019-05-02T10:40:39.032Z,20.73
2019-05-02T10:43:08.709Z,25.77
2019-05-02T10:45:39.664Z,25.20
2019-05-02T10:48:21.496Z,23.07
2019-05-02T10:50:44.390Z,24.57
2019-05-02T10:53:15.670Z,22.03
2019-05-02T10:55:44.990Z,27.27
2019-05-02T10:58:14.358Z,20.03
2019-05-02T11:00:45.433Z,28.57
2019-05-02T11:03:37.897Z,28.07
2019-05-02T11:06:07.801Z,29.93
2019-05-02T11:08:41.428Z,24.27
2019-05-02T11:11:08.345Z,26.83
2019-05-02T11:13:39.149Z,22.00
2019-05-02T11:16:28.321Z,21.47
2019-05-02T11:19:05.064Z,28.17
2019-05-02T11:21:35.577Z,19.77
2019-05-02T11:24:05.837Z,33.27
2019-05-02T11:26:35.077Z,19.73
2019-05-02T11:29:04.823Z,24.90
2019-05-02T11:31:34.586Z,19.90
2019-05-02T11:34:04.762Z,24.43
2019-05-02T11:36:34.573Z,24.27
2019-05-02T11:39:16.655Z,30.30
2019-05-02T11:41:36.163Z,27.23
2019-05-02T11:44:05.368Z,29.20
2019-05-02T11:46:37.480Z,33.80
2019-05-02T11:49:06.747Z,24.60
2019-05-02T11:51:35.947Z,30.63
2019-05-02T11:54:09.317Z,26.83
2019-05-02T11:56:36.163Z,25.20
2019-05-02T11:59:06.369Z,22.10
2019-05-02T12:01:39.578Z,22.47
2019-05-02T12:04:07.739Z,20.47
2019-05-02T12:06:37.415Z,23.47
2019-05-02T12:09:10.038Z,25.17
2019-05-02T12:11:39.331Z,25.87
2019-05-02T12:14:08.999Z,36.93
2019-05-02T12:16:38.154Z,18.27
2019-05-02T12:19:11.449Z,24.70
2019-05-02T12:21:39.323Z,24.37
2019-05-02T12:24:09.111Z,22.27
2019-05-02T12:26:38.346Z,24.23
2019-05-02T12:29:07.555Z,25.10
2019-05-02T12:31:36.707Z,25.03
2019-05-02T12:34:07.422Z,20.03
2019-05-02T12:36:36.769Z,24.60
2019-05-02T12:39:07.804Z,20.87
2019-05-02T12:41:36.979Z,23.90
2019-05-02T12:44:06.788Z,22.10
2019-05-02T12:46:35.957Z,23.13
2019-05-02T12:49:05.284Z,25.57
2019-05-02T12:51:34.557Z,28.20
2019-05-02T12:54:03.987Z,22.13
2019-05-02T12:56:33.328Z,22.37
2019-05-02T12:59:02.690Z,20.57
2019-05-02T13:01:32.986Z,24.83
2019-05-02T13:04:12.259Z,33.77
2019-05-02T13:06:42.123Z,27.90
2019-05-02T13:09:12.884Z,28.23
2019-05-02T13:11:45.881Z,24.20
2019-05-02T13:14:19.712Z,21.97
2019-05-02T13:16:47.984Z,26.93
2019-05-02T13:19:17.928Z,19.70
2019-05-02T13:21:50.274Z,31.07
2019-05-02T13:24:32.420Z,24.80
2019-05-02T13:27:04.025Z,23.70
2019-05-02T13:29:32.583Z,14.47
2019-05-02T13:32:04.257Z,18.53
2019-05-02T13:34:37.791Z,17.40
2019-05-02T13:37:09.480Z,18.30
2019-05-02T13:39:53.039Z,20.93
2019-05-02T13:42:23.170Z,20.33
2019-05-02T13:44:54.105Z,15.37
2019-05-02T13:47:25.870Z,24.13
2019-05-02T13:49:59.059Z,23.67
2019-05-02T13:52:28.121Z,25.33
2019-05-02T13:54:57.284Z,23.37
2019-05-02T13:57:26.783Z,20.63
2019-05-02T13:59:55.943Z,24.77
2019-05-02T14:02:39.899Z,22.20
2019-05-02T14:05:14.523Z,31.50
2019-05-02T14:07:48.202Z,23.70
2019-05-02T14:10:18.414Z,21.50
2019-05-02T14:12:49.227Z,24.73
2019-05-02T14:15:22.106Z,25.20
2019-05-02T14:17:52.522Z,31.33
2019-05-02T14:20:22.497Z,41.30
2019-05-02T14:22:52.674Z,25.90
2019-05-02T14:25:22.710Z,19.27
2019-05-02T14:27:55.507Z,25.53
2019-05-02T14:30:35.978Z,25.03
2019-05-02T14:32:58.371Z,26.23
2019-05-02T14:35:32.450Z,25.37
2019-05-02T14:38:07.957Z,23.10
2019-05-02T14:40:59.091Z,20.53
2019-05-02T14:43:48.121Z,25.73
2019-05-02T14:46:18.106Z,25.77
2019-05-02T14:48:48.599Z,25.00
2019-05-02T14:51:25.558Z,24.53
2019-05-02T14:53:52.326Z,20.63
2019-05-02T14:56:22.903Z,19.27
2019-05-02T14:58:52.866Z,21.00
2019-05-02T15:01:25.937Z,17.90
2019-05-02T15:03:53.452Z,20.63
2019-05-02T15:06:23.756Z,23.63
2019-05-02T15:08:53.096Z,18.27
2019-05-02T15:11:30.425Z,17.17
2019-05-02T15:13:53.165Z,24.90
2019-05-02T15:16:24.961Z,25.00
2019-05-02T15:18:57.073Z,16.03
2019-05-02T15:21:26.591Z,17.57
2019-05-02T15:23:58.013Z,22.93
2019-05-02T15:26:31.255Z,17.67
2019-05-02T15:28:58.301Z,17.90
2019-05-02T15:31:34.900Z,16.77
2019-05-02T15:34:08.894Z,26.23
2019-05-02T15:36:42.293Z,25.67
2019-05-02T15:41:44.995Z,16.80
2019-05-02T15:44:12.583Z,25.60
2019-05-02T15:46:42.483Z,28.53
2019-05-02T15:49:12.366Z,18.57
2019-05-02T15:51:43.634Z,20.50
2019-05-02T15:54:13.315Z,21.70
2019-05-02T15:57:00.156Z,17.17
2019-05-02T15:59:44.865Z,18.53
2019-05-02T16:02:12.980Z,21.17
2019-05-02T16:04:43.780Z,22.43
2019-05-02T16:07:13.184Z,17.23
2019-05-02T16:09:42.404Z,16.33
2019-05-02T16:12:12.220Z,20.27
2019-05-02T16:14:42.473Z,17.63
2019-05-02T16:17:12.619Z,14.50
2019-05-02T16:19:49.285Z,19.60
2019-05-02T16:22:20.061Z,15.50
2019-05-02T16:24:50.919Z,26.13
2019-05-02T16:27:25.428Z,27.93
2019-05-02T16:29:52.699Z,31.00
2019-05-02T16:32:30.832Z,18.37
2019-05-02T16:35:07.259Z,16.03
2019-05-02T16:37:33.502Z,15.57
2019-05-02T16:40:03.182Z,23.70
2019-05-02T16:42:33.537Z,14.33
2019-05-02T16:45:02.863Z,15.37
2019-05-02T16:47:32.714Z,11.30
2019-05-02T16:50:02.583Z,13.60
2019-05-02T16:52:32.695Z,14.80
2019-05-02T16:55:02.874Z,13.63
2019-05-02T16:57:34.995Z,16.40
2019-05-02T17:00:06.414Z,17.97
2019-05-02T17:02:37.851Z,12.47
2019-05-02T17:05:09.530Z,16.77
2019-05-02T17:07:43.059Z,14.77
2019-05-02T17:10:20.601Z,13.77
2019-05-02T17:12:55.029Z,20.73
2019-05-02T17:15:26.388Z,11.93
2019-05-02T17:17:58.117Z,17.60
2019-05-02T17:20:28.026Z,16.30
2019-05-02T17:23:05.362Z,13.87
2019-05-02T17:25:28.380Z,13.10
2019-05-02T17:28:02.470Z,14.47
2019-05-02T17:30:33.325Z,13.90
2019-05-02T17:33:01.751Z,12.50
2019-05-02T17:35:32.596Z,11.60
2019-05-02T17:38:02.726Z,18.07
2019-05-02T17:40:32.114Z,13.07
2019-05-02T17:43:06.572Z,13.53
2019-05-02T17:45:33.358Z,12.57
2019-05-02T17:48:09.951Z,15.07
2019-05-02T17:50:36.925Z,26.33
2019-05-02T17:53:08.302Z,18.77
2019-05-02T17:55:40.302Z,14.63
2019-05-02T17:58:12.483Z,20.93
2019-05-02T18:00:47.411Z,19.43
2019-05-02T18:03:15.520Z,18.77
2019-05-02T18:05:45.027Z,13.70
2019-05-02T18:08:14.844Z,17.90
2019-05-02T18:10:44.549Z,19.70
2019-05-02T18:13:13.707Z,15.20
2019-05-02T18:15:43.360Z,24.00
2019-05-02T18:18:12.510Z,15.87
2019-05-02T18:20:46.259Z,17.07
2019-05-02T18:23:12.727Z,15.93
2019-05-02T18:25:41.967Z,14.50
2019-05-02T18:28:15.877Z,23.63
2019-05-02T18:30:42.016Z,12.30
2019-05-02T18:33:12.043Z,16.23
2019-05-02T18:35:45.205Z,18.00
2019-05-02T18:38:16.025Z,18.33
2019-05-02T18:40:44.517Z,24.03
2019-05-02T18:43:13.814Z,18.53
2019-05-02T18:45:43.077Z,20.93
2019-05-02T18:48:12.676Z,18.57
2019-05-02T18:50:46.985Z,14.53
2019-05-02T18:53:18.696Z,18.80
2019-05-02T18:55:45.589Z,20.87
2019-05-02T18:58:14.827Z,20.63
2019-05-02T19:00:44.096Z,23.77
2019-05-02T19:03:17.185Z,24.70
2019-05-02T19:05:46.638Z,20.53
2019-05-02T19:08:27.876Z,22.30
2019-05-02T19:11:02.484Z,24.20
2019-05-02T19:13:17.825Z,22.63
2019-05-02T19:15:48.919Z,19.10
2019-05-02T19:18:19.620Z,15.50
2019-05-02T19:20:57.504Z,22.93
2019-05-02T19:23:26.122Z,19.80
2019-05-02T19:25:55.657Z,17.30
2019-05-02T19:28:29.158Z,17.13
2019-05-02T19:31:03.050Z,19.20
2019-05-02T19:33:29.504Z,21.10
2019-05-02T19:35:58.791Z,24.77
2019-05-02T19:38:28.009Z,24.10
2019-05-02T19:40:58.117Z,21.30
2019-05-02T19:43:28.092Z,19.17
2019-05-02T19:45:57.258Z,19.60
2019-05-02T19:48:27.428Z,20.13
2019-05-02T19:50:57.456Z,22.40
2019-05-02T19:53:27.149Z,19.70
2019-05-02T19:55:57.258Z,19.80
2019-05-02T19:58:27.652Z,20.63
2019-05-02T20:00:57.355Z,20.80
2019-05-02T20:03:26.525Z,21.50
2019-05-02T20:05:56.743Z,15.90
2019-05-02T20:08:26.831Z,17.10
2019-05-02T20:10:58.323Z,17.10
2019-05-02T20:13:28.517Z,19.03
2019-05-02T20:16:02.525Z,23.00
2019-05-02T20:18:34.941Z,18.57
2019-05-02T20:21:23.240Z,18.67
2019-05-02T20:23:46.208Z,18.20
2019-05-02T20:26:17.097Z,18.97
2019-05-02T20:28:46.871Z,19.33
2019-05-02T20:31:16.142Z,17.50
2019-05-02T20:33:45.289Z,26.70
2019-05-02T20:36:14.494Z,20.93
2019-05-02T20:38:43.705Z,20.27
2019-05-02T20:41:12.934Z,18.73
2019-05-02T20:43:44.423Z,21.50
2019-05-02T20:46:13.045Z,17.13
2019-05-02T20:48:42.203Z,17.73
2019-05-02T20:51:12.141Z,22.77
2019-05-02T20:53:42.168Z,20.13
2019-05-02T20:56:12.359Z,20.57
2019-05-02T20:58:42.154Z,18.70
2019-05-02T21:01:12.455Z,22.43
2019-05-02T21:03:42.960Z,24.27
2019-05-02T21:06:16.986Z,20.47
2019-05-02T21:09:03.743Z,18.20
2019-05-02T21:11:33.017Z,19.67
2019-05-02T21:14:02.167Z,18.67
2019-05-02T21:16:32.257Z,21.70
2019-05-02T21:19:02.249Z,22.37
2019-05-02T21:21:32.717Z,21.33
2019-05-02T21:24:02.166Z,18.37
2019-05-02T21:26:32.871Z,23.63
2019-05-02T21:29:02.361Z,21.47
2019-05-02T21:31:32.075Z,26.47
2019-05-02T21:34:02.556Z,23.43
2019-05-02T21:36:32.075Z,21.47
2019-05-02T21:39:02.756Z,18.67
2019-05-02T21:41:33.018Z,25.87
2019-05-02T21:44:02.621Z,21.27
2019-05-02T21:46:32.004Z,23.73
2019-05-02T21:49:01.203Z,22.57
2019-05-02T21:51:32.949Z,27.00
2019-05-02T21:54:22.650Z,22.13
2019-05-02T21:56:56.303Z,29.27
2019-05-02T21:59:25.496Z,23.20
2019-05-02T22:01:56.398Z,24.93
2019-05-02T22:04:25.559Z,22.67
2019-05-02T22:06:54.864Z,22.97
2019-05-02T22:09:24.197Z,23.70
2019-05-02T22:11:53.353Z,24.53
2019-05-02T22:14:22.965Z,23.60
2019-05-02T22:16:52.901Z,27.37
2019-05-02T22:19:22.677Z,28.90
2019-05-02T22:21:52.463Z,27.40
2019-05-02T22:24:22.121Z,22.70
2019-05-02T22:26:52.595Z,26.43
2019-05-02T22:29:22.045Z,24.47
2019-05-02T22:31:54.233Z,24.77
2019-05-02T22:34:22.291Z,26.80
2019-05-02T22:36:53.784Z,28.33
2019-05-02T22:39:39.511Z,24.37
2019-05-02T22:42:08.815Z,33.00
2019-05-02T22:44:37.969Z,24.50
2019-05-02T22:47:07.317Z,31.97
2019-05-02T22:49:37.037Z,26.87
2019-05-02T22:52:06.277Z,29.83
2019-05-02T22:54:35.484Z,25.33
2019-05-02T22:57:05.049Z,24.63
2019-05-02T22:59:34.206Z,25.63
2019-05-02T23:02:13.657Z,27.07
2019-05-02T23:04:42.821Z,30.67
2019-05-02T23:07:12.681Z,27.30
2019-05-02T23:09:43.693Z,31.00
2019-05-02T23:12:13.587Z,26.20
2019-05-02T23:14:43.978Z,31.50
2019-05-02T23:17:13.261Z,25.20
2019-05-02T23:19:42.546Z,29.83
2019-05-02T23:22:12.769Z,24.53
2019-05-02T23:24:43.862Z,26.57
2019-05-02T23:27:14.675Z,28.47
2019-05-02T23:29:43.835Z,25.03
2019-05-02T23:32:13.091Z,32.27
2019-05-02T23:34:42.242Z,30.23
2019-05-02T23:37:11.931Z,29.23
2019-05-02T23:39:41.792Z,30.70
2019-05-02T23:42:11.249Z,26.83
2019-05-02T23:44:42.443Z,30.37
2019-05-02T23:47:11.768Z,27.73
2019-05-02T23:49:42.723Z,30.67
2019-05-02T23:52:12.099Z,33.10
2019-05-02T23:54:50.004Z,29.03
2019-05-02T23:57:12.283Z,26.67
2019-05-02T23:59:42.419Z,28.80
